sensor_id;sensor_type;location;lat;lon;timestamp;pressure;altitude;pressure_sealevel;temperature;humidity
48778;BME280;34578;0.000;0.000;2023-03-31T00:04:15;96151.03;;;17.16;60.63
48778;BME280;34578;0.000;0.000;2023-03-31T00:09:16;96111.41;;;17.15;61.24
48778;BME280;34578;0.000;0.000;2023-03-31T00:14:19;96110.53;;;17.19;61.82
48778;BME280;34578;0.000;0.000;2023-03-31T00:19:20;96110.59;;;17.11;55.29
48778;BME280;34578;0.000;0.000;2023-03-31T00:24:20;96099.63;;;17.08;54.07
48778;BME280;34578;0.000;0.000;2023-03-31T00:29:20;96103.84;;;17.07;53.73
48778;BME280;34578;0.000;0.000;2023-03-31T00:34:23;96110.56;;;17.08;53.75
48778;BME280;34578;0.000;0.000;2023-03-31T00:39:23;96117.34;;;17.08;53.85
48778;BME280;34578;0.000;0.000;2023-03-31T00:44:24;96122.41;;;17.08;53.61
48778;BME280;34578;0.000;0.000;2023-03-31T00:49:34;96123.25;;;17.07;53.35
48778;BME280;34578;0.000;0.000;2023-03-31T00:54:37;96143.47;;;17.07;53.42
48778;BME280;34578;0.000;0.000;2023-03-31T00:59:51;96140.94;;;17.07;53.42
48778;BME280;34578;0.000;0.000;2023-03-31T01:04:57;96138.41;;;17.04;53.21
48778;BME280;34578;0.000;0.000;2023-03-31T01:10:02;96116.50;;;17.06;53.18
48778;BME280;34578;0.000;0.000;2023-03-31T01:15:05;96070.13;;;17.10;59.11
48778;BME280;34578;0.000;0.000;2023-03-31T01:41:49;95997.69;;;17.01;53.17
48778;BME280;34578;0.000;0.000;2023-03-31T01:47:00;95993.44;;;17.00;52.84
48778;BME280;34578;0.000;0.000;2023-03-31T01:52:13;95958.91;;;17.01;52.73
48778;BME280;34578;0.000;0.000;2023-03-31T01:57:33;95945.44;;;16.99;52.76
48778;BME280;34578;0.000;0.000;2023-03-31T02:02:39;95942.88;;;17.02;52.63
48778;BME280;34578;0.000;0.000;2023-03-31T02:07:46;95940.34;;;17.00;52.77
48778;BME280;34578;0.000;0.000;2023-03-31T02:12:48;95919.28;;;17.03;52.41
48778;BME280;34578;0.000;0.000;2023-03-31T02:17:54;95896.50;;;17.06;52.29
48778;BME280;34578;0.000;0.000;2023-03-31T02:22:56;95883.84;;;17.07;52.04
48778;BME280;34578;0.000;0.000;2023-03-31T02:28:03;95875.38;;;17.11;59.97
48778;BME280;34578;0.000;0.000;2023-03-31T02:33:07;95859.34;;;17.14;60.48
48778;BME280;34578;0.000;0.000;2023-03-31T02:38:08;95834.03;;;17.15;58.58
48778;BME280;34578;0.000;0.000;2023-03-31T02:43:10;95826.50;;;17.11;53.45
48778;BME280;34578;0.000;0.000;2023-03-31T02:48:33;95790.28;;;17.07;52.63
48778;BME280;34578;0.000;0.000;2023-03-31T02:53:52;95777.66;;;17.06;52.26
48778;BME280;34578;0.000;0.000;2023-03-31T03:04:34;95749.84;;;17.04;52.34
48778;BME280;34578;0.000;0.000;2023-03-31T03:15:52;95699.28;;;17.04;51.82
48778;BME280;34578;0.000;0.000;2023-03-31T03:20:31;95684.09;;;17.06;51.89
48778;BME280;34578;0.000;0.000;2023-03-31T03:25:35;95663.03;;;17.04;51.78
48778;BME280;34578;0.000;0.000;2023-03-31T03:30:36;95635.22;;;17.07;51.88
48778;BME280;34578;0.000;0.000;2023-03-31T03:35:36;95619.19;;;17.06;51.43
48778;BME280;34578;0.000;0.000;2023-03-31T03:40:37;95597.97;;;17.16;59.95
48778;BME280;34578;0.000;0.000;2023-03-31T03:45:37;95582.00;;;17.16;60.63
48778;BME280;34578;0.000;0.000;2023-03-31T03:50:38;95552.47;;;17.16;54.41
48778;BME280;34578;0.000;0.000;2023-03-31T03:55:38;95558.41;;;17.14;52.42
48778;BME280;34578;0.000;0.000;2023-03-31T04:00:38;95530.63;;;17.12;52.59
48778;BME280;34578;0.000;0.000;2023-03-31T04:05:39;95537.28;;;17.16;52.23
48778;BME280;34578;0.000;0.000;2023-03-31T04:10:45;95521.22;;;17.20;53.19
48778;BME280;34578;0.000;0.000;2023-03-31T04:15:48;95487.50;;;17.20;52.89
48778;BME280;34578;0.000;0.000;2023-03-31T04:20:49;95504.34;;;17.21;52.81
48778;BME280;34578;0.000;0.000;2023-03-31T04:25:53;95524.56;;;17.21;52.25
48778;BME280;34578;0.000;0.000;2023-03-31T04:30:54;95542.28;;;17.21;52.42
48778;BME280;34578;0.000;0.000;2023-03-31T04:35:57;95565.94;;;17.18;52.46
48778;BME280;34578;0.000;0.000;2023-03-31T04:41:05;95531.34;;;17.19;52.19
48778;BME280;34578;0.000;0.000;2023-03-31T04:46:07;95534.69;;;17.21;52.37
48778;BME280;34578;0.000;0.000;2023-03-31T04:51:07;95523.63;;;17.29;55.86
48778;BME280;34578;0.000;0.000;2023-03-31T04:56:08;95528.63;;;17.32;59.47
48778;BME280;34578;0.000;0.000;2023-03-31T05:01:09;95528.69;;;17.29;53.69
48778;BME280;34578;0.000;0.000;2023-03-31T05:06:15;95527.88;;;17.26;52.99
48778;BME280;34578;0.000;0.000;2023-03-31T05:11:16;95527.09;;;17.21;52.83
48778;BME280;34578;0.000;0.000;2023-03-31T05:16:16;95543.06;;;17.26;52.40
48778;BME280;34578;0.000;0.000;2023-03-31T05:21:19;95534.66;;;17.24;52.59
48778;BME280;34578;0.000;0.000;2023-03-31T05:26:20;95521.97;;;17.25;53.47
48778;BME280;34578;0.000;0.000;2023-03-31T05:31:24;95511.13;;;17.19;56.25
48778;BME280;34578;0.000;0.000;2023-03-31T05:36:25;95522.09;;;17.19;52.45
48778;BME280;34578;0.000;0.000;2023-03-31T05:41:26;95489.16;;;17.21;52.59
48778;BME280;34578;0.000;0.000;2023-03-31T05:46:27;95439.50;;;17.17;53.27
48778;BME280;34578;0.000;0.000;2023-03-31T05:51:27;95431.13;;;17.13;53.67
48778;BME280;34578;0.000;0.000;2023-03-31T05:56:28;95405.84;;;17.13;53.59
48778;BME280;34578;0.000;0.000;2023-03-31T06:01:28;95423.38;;;17.24;60.86
48778;BME280;34578;0.000;0.000;2023-03-31T06:06:32;95404.75;;;17.28;60.89
48778;BME280;34578;0.000;0.000;2023-03-31T06:11:33;95469.72;;;17.27;55.69
48778;BME280;34578;0.000;0.000;2023-03-31T06:16:34;95626.53;;;17.24;53.71
48778;BME280;34578;0.000;0.000;2023-03-31T06:21:35;95695.72;;;17.20;53.14
48778;BME280;34578;0.000;0.000;2023-03-31T06:26:37;95701.66;;;17.16;52.80
48778;BME280;34578;0.000;0.000;2023-03-31T06:31:38;95705.06;;;17.17;53.02
48778;BME280;34578;0.000;0.000;2023-03-31T06:36:38;95721.94;;;17.15;52.55
48778;BME280;34578;0.000;0.000;2023-03-31T06:41:38;95681.50;;;17.12;52.55
48778;BME280;34578;0.000;0.000;2023-03-31T06:46:39;95716.03;;;17.13;52.72
48778;BME280;34578;0.000;0.000;2023-03-31T06:51:39;95607.34;;;17.08;52.69
48778;BME280;34578;0.000;0.000;2023-03-31T06:56:39;95637.63;;;17.16;52.45
48778;BME280;34578;0.000;0.000;2023-03-31T07:01:40;95608.13;;;17.15;52.34
48778;BME280;34578;0.000;0.000;2023-03-31T07:06:41;95622.47;;;17.14;53.09
48778;BME280;34578;0.000;0.000;2023-03-31T07:11:41;95627.34;;;17.28;58.21
48778;BME280;34578;0.000;0.000;2023-03-31T07:16:42;95618.00;;;17.37;59.35
48778;BME280;34578;0.000;0.000;2023-03-31T07:21:42;95612.09;;;17.34;57.78
48778;BME280;34578;0.000;0.000;2023-03-31T07:26:43;95613.06;;;17.24;53.61
48778;BME280;34578;0.000;0.000;2023-03-31T07:31:46;95617.28;;;17.22;52.86
48778;BME280;34578;0.000;0.000;2023-03-31T07:36:46;95610.63;;;17.18;53.22
48778;BME280;34578;0.000;0.000;2023-03-31T07:41:46;95633.38;;;17.16;54.75
48778;BME280;34578;0.000;0.000;2023-03-31T07:46:47;95622.34;;;17.22;54.03
48778;BME280;34578;0.000;0.000;2023-03-31T07:51:47;95643.44;;;17.22;53.58
48778;BME280;34578;0.000;0.000;2023-03-31T07:56:47;95640.91;;;17.21;53.38
48778;BME280;34578;0.000;0.000;2023-03-31T08:01:48;95642.59;;;17.22;53.34
48778;BME280;34578;0.000;0.000;2023-03-31T08:06:48;95625.75;;;17.21;53.25
48778;BME280;34578;0.000;0.000;2023-03-31T08:11:50;95618.16;;;17.21;53.14
48778;BME280;34578;0.000;0.000;2023-03-31T08:16:51;95611.47;;;17.18;52.71
48778;BME280;34578;0.000;0.000;2023-03-31T08:21:55;95631.59;;;17.26;60.25
48778;BME280;34578;0.000;0.000;2023-03-31T08:26:55;95634.06;;;17.32;61.34
48778;BME280;34578;0.000;0.000;2023-03-31T08:31:56;95625.63;;;17.31;59.30
48778;BME280;34578;0.000;0.000;2023-03-31T08:36:56;95651.81;;;17.26;54.13
48778;BME280;34578;0.000;0.000;2023-03-31T08:42:00;95632.47;;;17.22;52.88
48778;BME280;34578;0.000;0.000;2023-03-31T08:47:04;95629.97;;;17.20;52.98
48778;BME280;34578;0.000;0.000;2023-03-31T08:52:11;95654.34;;;17.26;52.94
48778;BME280;34578;0.000;0.000;2023-03-31T08:57:27;95631.53;;;17.29;53.24
48778;BME280;34578;0.000;0.000;2023-03-31T09:02:50;95654.25;;;17.33;53.46
48778;BME280;34578;0.000;0.000;2023-03-31T09:18:36;95609.56;;;17.32;53.72
48778;BME280;34578;0.000;0.000;2023-03-31T09:23:41;95577.63;;;17.25;55.54
48778;BME280;34578;0.000;0.000;2023-03-31T09:28:45;95590.31;;;17.24;55.54
48778;BME280;34578;0.000;0.000;2023-03-31T09:33:47;95570.78;;;17.36;58.79
48778;BME280;34578;0.000;0.000;2023-03-31T09:38:50;95544.53;;;17.43;60.49
48778;BME280;34578;0.000;0.000;2023-03-31T09:43:50;95541.22;;;17.40;56.04
48778;BME280;34578;0.000;0.000;2023-03-31T09:48:57;95513.41;;;17.37;54.64
48778;BME280;34578;0.000;0.000;2023-03-31T09:54:21;95509.22;;;17.36;54.43
48778;BME280;34578;0.000;0.000;2023-03-31T09:59:34;95532.00;;;17.33;54.57
48778;BME280;34578;0.000;0.000;2023-03-31T10:04:44;95529.47;;;17.33;54.70
48778;BME280;34578;0.000;0.000;2023-03-31T10:09:45;95548.06;;;17.32;54.68
48778;BME280;34578;0.000;0.000;2023-03-31T10:14:48;95505.84;;;17.34;54.67
48778;BME280;34578;0.000;0.000;2023-03-31T10:19:55;95509.25;;;17.33;54.41
48778;BME280;34578;0.000;0.000;2023-03-31T10:25:15;95501.63;;;17.36;54.88
48778;BME280;34578;0.000;0.000;2023-03-31T10:30:24;95504.97;;;17.38;54.90
48778;BME280;34578;0.000;0.000;2023-03-31T10:35:29;95532.78;;;17.41;55.00
48778;BME280;34578;0.000;0.000;2023-03-31T10:40:32;95535.25;;;17.44;55.37
48778;BME280;34578;0.000;0.000;2023-03-31T10:45:51;95527.59;;;17.47;61.21
48778;BME280;34578;0.000;0.000;2023-03-31T10:50:58;95527.56;;;17.50;60.78
48778;BME280;34578;0.000;0.000;2023-03-31T10:56:13;95494.78;;;17.42;55.73
48778;BME280;34578;0.000;0.000;2023-03-31T11:01:40;95487.22;;;17.41;55.31
48778;BME280;34578;0.000;0.000;2023-03-31T11:12:21;95435.78;;;17.42;56.29
48778;BME280;34578;0.000;0.000;2023-03-31T11:17:26;95453.50;;;17.39;56.38
48778;BME280;34578;0.000;0.000;2023-03-31T11:22:35;95441.72;;;17.38;56.39
48778;BME280;34578;0.000;0.000;2023-03-31T11:32:55;95467.03;;;17.38;56.64
48778;BME280;34578;0.000;0.000;2023-03-31T11:39:05;95475.38;;;17.44;57.38
48778;BME280;34578;0.000;0.000;2023-03-31T11:48:56;95469.09;;;17.66;59.12
48778;BME280;34578;0.000;0.000;2023-03-31T11:54:01;95478.25;;;17.72;59.11
48778;BME280;34578;0.000;0.000;2023-03-31T11:59:03;95648.63;;;17.77;59.61
48778;BME280;34578;0.000;0.000;2023-03-31T12:09:29;95519.41;;;17.84;59.56
48778;BME280;34578;0.000;0.000;2023-03-31T12:14:38;95501.56;;;17.92;59.46
48778;BME280;34578;0.000;0.000;2023-03-31T12:19:54;95483.84;;;17.92;59.78
48778;BME280;34578;0.000;0.000;2023-03-31T12:24:57;95450.13;;;17.90;60.68
48778;BME280;34578;0.000;0.000;2023-03-31T12:30:00;95439.91;;;17.94;60.01
48778;BME280;34578;0.000;0.000;2023-03-31T12:45:31;95407.91;;;17.89;56.21
48778;BME280;34578;0.000;0.000;2023-03-31T12:55:55;95356.91;;;18.08;54.18
48778;BME280;34578;0.000;0.000;2023-03-31T13:16:34;95357.13;;;17.98;51.89
48778;BME280;34578;0.000;0.000;2023-03-31T13:21:52;95347.81;;;17.98;51.56
48778;BME280;34578;0.000;0.000;2023-03-31T13:26:54;95324.22;;;17.98;51.85
48778;BME280;34578;0.000;0.000;2023-03-31T13:37:29;95365.72;;;17.89;52.12
48778;BME280;34578;0.000;0.000;2023-03-31T13:48:19;95520.41;;;17.76;53.94
48778;BME280;34578;0.000;0.000;2023-03-31T13:53:37;95533.94;;;17.73;54.99
48778;BME280;34578;0.000;0.000;2023-03-31T14:09:35;95428.66;;;17.63;51.31
48778;BME280;34578;0.000;0.000;2023-03-31T14:14:39;95418.59;;;17.60;51.80
48778;BME280;34578;0.000;0.000;2023-03-31T14:19:50;95439.66;;;17.61;51.55
48778;BME280;34578;0.000;0.000;2023-03-31T14:25:03;95460.75;;;17.61;51.06
48778;BME280;34578;0.000;0.000;2023-03-31T14:30:38;95450.66;;;17.58;51.02
48778;BME280;34578;0.000;0.000;2023-03-31T14:36:08;95476.88;;;17.56;50.81
48778;BME280;34578;0.000;0.000;2023-03-31T14:41:17;95459.22;;;17.51;50.60
48778;BME280;34578;0.000;0.000;2023-03-31T14:46:30;95448.22;;;17.54;51.94
48778;BME280;34578;0.000;0.000;2023-03-31T14:51:33;95427.94;;;17.57;57.44
48778;BME280;34578;0.000;0.000;2023-03-31T14:56:37;95423.69;;;17.57;52.96
48778;BME280;34578;0.000;0.000;2023-03-31T15:01:40;95435.63;;;17.49;50.58
48778;BME280;34578;0.000;0.000;2023-03-31T15:06:44;95432.38;;;17.44;50.09
48778;BME280;34578;0.000;0.000;2023-03-31T15:11:46;95441.66;;;17.42;50.44
48778;BME280;34578;0.000;0.000;2023-03-31T15:16:49;95466.13;;;17.43;50.27
48778;BME280;34578;0.000;0.000;2023-03-31T15:22:14;95456.88;;;17.41;52.36
48778;BME280;34578;0.000;0.000;2023-03-31T15:27:26;95436.69;;;17.35;49.62
48778;BME280;34578;0.000;0.000;2023-03-31T15:32:31;95429.13;;;17.36;49.62
48778;BME280;34578;0.000;0.000;2023-03-31T15:37:39;95425.72;;;17.37;49.49
48778;BME280;34578;0.000;0.000;2023-03-31T15:42:40;95406.31;;;17.38;49.43
48778;BME280;34578;0.000;0.000;2023-03-31T15:47:51;95414.69;;;17.41;55.23
48778;BME280;34578;0.000;0.000;2023-03-31T15:52:53;95406.84;;;17.56;55.04
48778;BME280;34578;0.000;0.000;2023-03-31T15:57:56;95401.09;;;17.47;52.57
48778;BME280;34578;0.000;0.000;2023-03-31T16:02:59;95398.59;;;17.45;49.22
48778;BME280;34578;0.000;0.000;2023-03-31T16:08:01;95391.91;;;17.41;49.37
48778;BME280;34578;0.000;0.000;2023-03-31T16:13:05;95407.94;;;17.42;49.33
48778;BME280;34578;0.000;0.000;2023-03-31T16:18:21;95397.81;;;17.42;49.48
48778;BME280;34578;0.000;0.000;2023-03-31T16:23:29;95391.09;;;17.41;48.92
48778;BME280;34578;0.000;0.000;2023-03-31T16:28:31;95389.50;;;17.34;49.20
48778;BME280;34578;0.000;0.000;2023-03-31T16:33:54;95384.38;;;17.40;48.77
48778;BME280;34578;0.000;0.000;2023-03-31T16:38:54;95400.34;;;17.43;48.97
48778;BME280;34578;0.000;0.000;2023-03-31T16:43:55;95408.75;;;17.44;49.14
48778;BME280;34578;0.000;0.000;2023-03-31T16:48:55;95406.97;;;17.49;54.73
48778;BME280;34578;0.000;0.000;2023-03-31T16:53:55;95432.09;;;17.59;56.26
48778;BME280;34578;0.000;0.000;2023-03-31T16:58:56;95420.25;;;17.61;52.76
48778;BME280;34578;0.000;0.000;2023-03-31T17:03:56;95414.44;;;17.55;49.86
48778;BME280;34578;0.000;0.000;2023-03-31T17:08:57;95431.41;;;17.50;49.05
48778;BME280;34578;0.000;0.000;2023-03-31T17:13:57;95435.63;;;17.51;49.62
48778;BME280;34578;0.000;0.000;2023-03-31T17:18:59;95432.25;;;17.50;49.25
48778;BME280;34578;0.000;0.000;2023-03-31T17:23:59;95433.09;;;17.51;49.18
48778;BME280;34578;0.000;0.000;2023-03-31T17:29:00;95432.22;;;17.52;48.98
48778;BME280;34578;0.000;0.000;2023-03-31T17:34:00;95431.41;;;17.50;49.35
48778;BME280;34578;0.000;0.000;2023-03-31T17:39:02;95421.31;;;17.50;49.04
48778;BME280;34578;0.000;0.000;2023-03-31T17:44:04;95417.09;;;17.49;49.11
48778;BME280;34578;0.000;0.000;2023-03-31T17:49:06;95403.66;;;17.45;49.28
48778;BME280;34578;0.000;0.000;2023-03-31T17:54:07;95386.56;;;17.58;54.66
48778;BME280;34578;0.000;0.000;2023-03-31T17:59:07;95402.47;;;17.66;57.86
48778;BME280;34578;0.000;0.000;2023-03-31T18:04:09;95413.63;;;17.56;49.60
48778;BME280;34578;0.000;0.000;2023-03-31T18:09:10;95417.06;;;17.50;49.03
48778;BME280;34578;0.000;0.000;2023-03-31T18:14:10;95405.34;;;17.46;48.18
48778;BME280;34578;0.000;0.000;2023-03-31T18:19:11;95414.66;;;17.43;48.19
48778;BME280;34578;0.000;0.000;2023-03-31T18:24:11;95407.94;;;17.42;47.99
48778;BME280;34578;0.000;0.000;2023-03-31T18:29:13;95412.19;;;17.40;48.28
48778;BME280;34578;0.000;0.000;2023-03-31T18:34:13;95406.28;;;17.39;48.19
48778;BME280;34578;0.000;0.000;2023-03-31T18:39:15;95414.72;;;17.40;48.05
48778;BME280;34578;0.000;0.000;2023-03-31T18:44:15;95416.41;;;17.41;48.33
48778;BME280;34578;0.000;0.000;2023-03-31T18:49:16;95414.69;;;17.41;48.18
48778;BME280;34578;0.000;0.000;2023-03-31T18:54:19;95420.44;;;17.51;55.64
48778;BME280;34578;0.000;0.000;2023-03-31T18:59:20;95422.75;;;17.63;57.94
48778;BME280;34578;0.000;0.000;2023-03-31T19:04:20;95430.41;;;17.58;51.57
48778;BME280;34578;0.000;0.000;2023-03-31T19:09:21;95432.22;;;17.52;48.92
48778;BME280;34578;0.000;0.000;2023-03-31T19:14:25;95452.53;;;17.49;48.39
48778;BME280;34578;0.000;0.000;2023-03-31T19:19:25;95465.19;;;17.46;48.04
48778;BME280;34578;0.000;0.000;2023-03-31T19:24:26;95469.41;;;17.47;48.34
48778;BME280;34578;0.000;0.000;2023-03-31T19:29:27;95459.34;;;17.45;48.27
48778;BME280;34578;0.000;0.000;2023-03-31T19:34:29;95471.13;;;17.46;48.24
48778;BME280;34578;0.000;0.000;2023-03-31T19:39:29;95495.56;;;17.46;48.23
48778;BME280;34578;0.000;0.000;2023-03-31T19:44:30;95488.84;;;17.45;47.77
48778;BME280;34578;0.000;0.000;2023-03-31T19:49:30;95501.47;;;17.46;48.02
48778;BME280;34578;0.000;0.000;2023-03-31T19:54:31;95487.97;;;17.46;48.31
48778;BME280;34578;0.000;0.000;2023-03-31T19:59:31;95508.84;;;17.60;57.24
48778;BME280;34578;0.000;0.000;2023-03-31T20:04:32;95502.03;;;17.65;58.35
48778;BME280;34578;0.000;0.000;2023-03-31T20:09:32;95511.38;;;17.58;49.76
48778;BME280;34578;0.000;0.000;2023-03-31T20:14:33;95509.78;;;17.53;48.34
48778;BME280;34578;0.000;0.000;2023-03-31T20:19:33;95517.44;;;17.50;48.25
48778;BME280;34578;0.000;0.000;2023-03-31T20:24:34;95505.66;;;17.49;48.42
48778;BME280;34578;0.000;0.000;2023-03-31T20:29:34;95518.25;;;17.50;48.97
48778;BME280;34578;0.000;0.000;2023-03-31T20:34:34;95525.91;;;17.49;48.16
48778;BME280;34578;0.000;0.000;2023-03-31T20:39:35;95525.06;;;17.47;47.91
48778;BME280;34578;0.000;0.000;2023-03-31T20:44:36;95520.88;;;17.46;48.74
48778;BME280;34578;0.000;0.000;2023-03-31T20:49:37;95534.25;;;17.54;55.70
48778;BME280;34578;0.000;0.000;2023-03-31T20:54:37;95537.41;;;17.66;58.88
48778;BME280;34578;0.000;0.000;2023-03-31T20:59:40;95559.41;;;17.63;52.16
48778;BME280;34578;0.000;0.000;2023-03-31T21:04:40;95557.78;;;17.59;49.10
48778;BME280;34578;0.000;0.000;2023-03-31T21:09:41;95533.44;;;17.52;48.29
48778;BME280;34578;0.000;0.000;2023-03-31T21:14:41;95539.41;;;17.48;48.47
48778;BME280;34578;0.000;0.000;2023-03-31T21:19:41;95542.78;;;17.47;47.93
48778;BME280;34578;0.000;0.000;2023-03-31T21:24:42;95534.38;;;17.45;48.04
48778;BME280;34578;0.000;0.000;2023-03-31T21:29:42;95556.28;;;17.46;47.73
48778;BME280;34578;0.000;0.000;2023-03-31T21:34:42;95552.94;;;17.44;48.12
48778;BME280;34578;0.000;0.000;2023-03-31T21:39:43;95536.75;;;17.57;55.53
48778;BME280;34578;0.000;0.000;2023-03-31T21:44:43;95534.25;;;17.54;54.11
48778;BME280;34578;0.000;0.000;2023-03-31T21:49:43;95537.53;;;17.60;54.44
48778;BME280;34578;0.000;0.000;2023-03-31T21:54:44;95537.34;;;17.71;60.08
48778;BME280;34578;0.000;0.000;2023-03-31T21:59:45;95543.25;;;17.71;52.55
48778;BME280;34578;0.000;0.000;2023-03-31T22:04:45;95547.47;;;17.71;52.87
48778;BME280;34578;0.000;0.000;2023-03-31T22:09:45;95562.66;;;17.71;52.94
48778;BME280;34578;0.000;0.000;2023-03-31T22:14:46;95564.38;;;17.69;53.22
48778;BME280;34578;0.000;0.000;2023-03-31T22:19:46;95588.03;;;17.68;53.28
48778;BME280;34578;0.000;0.000;2023-03-31T22:24:49;95577.06;;;17.67;53.88
48778;BME280;34578;0.000;0.000;2023-03-31T22:29:50;95555.97;;;17.67;54.32
48778;BME280;34578;0.000;0.000;2023-03-31T22:34:50;95560.19;;;17.66;54.25
48778;BME280;34578;0.000;0.000;2023-03-31T22:39:51;95544.16;;;17.67;51.93
48778;BME280;34578;0.000;0.000;2023-03-31T22:44:51;95545.81;;;17.70;53.00
48778;BME280;34578;0.000;0.000;2023-03-31T22:49:52;95543.25;;;17.71;54.90
48778;BME280;34578;0.000;0.000;2023-03-31T22:54:52;95560.03;;;17.77;56.72
48778;BME280;34578;0.000;0.000;2023-03-31T22:59:52;95569.28;;;17.79;55.56
48778;BME280;34578;0.000;0.000;2023-03-31T23:04:53;95566.84;;;17.73;55.55
48778;BME280;34578;0.000;0.000;2023-03-31T23:09:53;95567.69;;;17.72;54.99
48778;BME280;34578;0.000;0.000;2023-03-31T23:14:53;95553.38;;;17.73;54.61
48778;BME280;34578;0.000;0.000;2023-03-31T23:19:54;95554.16;;;17.75;55.53
48778;BME280;34578;0.000;0.000;2023-03-31T23:24:54;95555.91;;;17.71;58.33
48778;BME280;34578;0.000;0.000;2023-03-31T23:29:55;95567.72;;;17.71;57.65
48778;BME280;34578;0.000;0.000;2023-03-31T23:34:55;95568.56;;;17.71;57.23
48778;BME280;34578;0.000;0.000;2023-03-31T23:39:56;95598.94;;;17.73;58.27
48778;BME280;34578;0.000;0.000;2023-03-31T23:44:56;95602.28;;;17.72;57.59
48778;BME280;34578;0.000;0.000;2023-03-31T23:49:57;95591.34;;;17.70;59.05
48778;BME280;34578;0.000;0.000;2023-03-31T23:54:57;95600.63;;;17.71;59.73
48778;BME280;34578;0.000;0.000;2023-03-31T23:59:58;95579.50;;;17.73;60.18
